Weather reports worldwide

Advertisment
Paganella, Italy (16022): temperature & dewpoint: 15.01.2018 04:00:00 - 21.01.2018 04:00:00 (CET)Paganella, Italy (16022): wind speed: 15.01.2018 04:00:00 - 21.01.2018 04:00:00 (CET)Paganella, Italy (16022): wind direction: 15.01.2018 04:00:00 - 21.01.2018 04:00:00 (CET)Paganella, Italy (16022): visibility: 15.01.2018 04:00:00 - 21.01.2018 04:00:00 (CET)Paganella, Italy (16022): sunshine duration: 15.01.2018 04:00:00 - 21.01.2018 04:00:00 (CET)
Date & Time tt [°C] td [°C] ff [km/h] ff [kn] dd vv [km] sd [min]
21.01.2018 04:00:00 - - - - - - -
21.01.2018 03:00:00 -6,6 -6,9 22 12 W 0,3 -
21.01.2018 02:00:00 -7,4 -7,7 24 13 W - -
21.01.2018 01:00:00 -8,0 -8,0 26 14 WSW - -
21.01.2018 00:00:00 -8,0 -8,0 26 14 WSW - -
20.01.2018 23:00:00 -8,0 -8,8 39 21 SW - -
20.01.2018 22:00:00 -7,8 -10,6 34 18 SW 30 -
20.01.2018 21:00:00 -7,8 -11,5 28 15 SW 40 -
20.01.2018 20:00:00 -7,7 -11,5 37 20 WSW 50 -
20.01.2018 19:00:00 -7,6 -11,6 68 37 WSW 50 -
20.01.2018 18:00:00 -7,2 -10,7 50 27 SW 50 0
20.01.2018 17:00:00 -7,0 -10,3 39 21 WSW 70 0
20.01.2018 16:00:00 -6,8 -10,5 16 9 SW 70 12
20.01.2018 15:00:00 -6,4 -12,5 31 17 SW 70 54
20.01.2018 14:00:00 -6,0 -12,5 24 13 WSW 70 60
20.01.2018 13:00:00 -6,6 -13,3 18 10 SSW 75 60
20.01.2018 12:00:00 -6,4 -13,5 11 6 SSW 75 60
20.01.2018 11:00:00 -6,6 -14,4 9 5 SSW 75 60
20.01.2018 10:00:00 -7,0 -18,0 0 0 N 75 60
20.01.2018 09:00:00 -7,6 -15,8 8 4 SW 75 48
20.01.2018 08:00:00 -7,7 -16,1 16 9 WNW 40 0
20.01.2018 07:00:00 -7,1 -16,3 15 8 WNW 70 -
20.01.2018 06:00:00 -7,2 -16,1 15 8 WNW 70 -
20.01.2018 05:00:00 -6,8 -16,5 13 7 W 70 -
20.01.2018 04:00:00 -6,7 -15,6 13 7 SW 70 -
20.01.2018 03:00:00 -6,8 -14,5 26 14 SW 70 -
20.01.2018 02:00:00 -6,6 -16,0 26 14 WSW 70 -
20.01.2018 01:00:00 -6,2 -17,6 28 15 WSW 70 -
20.01.2018 00:00:00 -6,2 -18,2 35 19 W 70 -
19.01.2018 23:00:00 -6,2 -18,5 34 18 W 70 -
19.01.2018 22:00:00 -6,0 -19,0 31 17 SW 70 -
19.01.2018 21:00:00 -6,0 -19,3 9 5 N 70 -
19.01.2018 20:00:00 -6,3 -18,9 15 8 N 70 -
19.01.2018 19:00:00 -6,2 -18,8 9 5 N 50 -
19.01.2018 18:00:00 -6,2 -19,2 13 7 NNW 50 0
19.01.2018 17:00:00 -5,6 -19,3 15 8 N 70 42
19.01.2018 16:00:00 -5,0 -18,8 21 11 NNW 70 60
19.01.2018 15:00:00 -5,0 -13,8 22 12 NW 70 60
19.01.2018 14:00:00 -5,0 -10,2 22 12 NW 60 24
19.01.2018 13:00:00 -4,8 -6,9 21 11 NW 50 60
19.01.2018 12:00:00 -3,0 -7,2 13 7 NW 50 60
19.01.2018 11:00:00 -2,0 -7,9 13 7 W 70 60
19.01.2018 10:00:00 -1,4 -8,6 48 26 SW 50 42
19.01.2018 09:00:00 -1,8 -8,1 52 28 SW 50 6
19.01.2018 08:00:00 -1,6 -10,2 55 30 SW 70 0
19.01.2018 07:00:00 -1,8 -9,4 48 26 SW 60 -
19.01.2018 06:00:00 -2,0 -7,9 44 24 SW 40 -
19.01.2018 05:00:00 -2,0 -7,5 48 26 SW 40 -
19.01.2018 04:00:00 -2,0 -7,1 57 31 SW 40 -
19.01.2018 03:00:00 -2,0 -6,7 55 30 WSW 50 -
19.01.2018 02:00:00 -1,8 -6,2 50 27 WSW 50 -
19.01.2018 01:00:00 -1,8 -6,2 50 27 WSW 50 -
19.01.2018 00:00:00 -3,0 -7,7 55 30 WSW 60 -
18.01.2018 23:00:00 -2,2 -7,9 46 25 SSW 40 -
18.01.2018 22:00:00 -3,0 -8,6 37 20 SW 50 -
18.01.2018 21:00:00 -3,0 -8,8 28 15 SSW 60 -
18.01.2018 20:00:00 -3,2 -9,0 18 10 SSW 60 -
18.01.2018 19:00:00 -3,8 -9,8 18 10 SSW 60 -
18.01.2018 18:00:00 -5,2 -10,5 24 13 SW 60 0
18.01.2018 17:00:00 -5,4 -13,0 26 14 SSW 70 48
18.01.2018 16:00:00 -5,4 -13,2 21 11 SSW 70 60
18.01.2018 15:00:00 -5,8 -11,7 22 12 SSW 70 60
18.01.2018 14:00:00 -6,0 -11,7 18 10 SSW 70 60
18.01.2018 13:00:00 -6,6 -12,7 18 10 SSW 70 60
18.01.2018 12:00:00 -7,0 -13,4 18 10 S 70 60
18.01.2018 11:00:00 -7,2 -14,3 22 12 S 70 60
18.01.2018 10:00:00 -8,4 -15,8 22 12 S 70 60
18.01.2018 09:00:00 -8,6 -16,5 18 10 SSE 70 60
18.01.2018 08:00:00 -9,2 -17,0 18 10 SSE 70 0
18.01.2018 07:00:00 -9,2 -17,0 18 10 SE 50 -
18.01.2018 06:00:00 -8,0 -17,1 15 8 SE 50 -
18.01.2018 05:00:00 -8,2 -16,8 18 10 SE 50 -
18.01.2018 04:00:00 -8,2 -16,8 15 8 SSE 50 -
18.01.2018 03:00:00 -9,0 -17,1 15 8 SSE 50 -
18.01.2018 02:00:00 -9,2 -17,0 9 5 N 50 -
18.01.2018 01:00:00 -9,4 -17,4 9 5 NNE 50 -
18.01.2018 00:00:00 -9,6 -15,1 11 6 N 50 -
17.01.2018 23:00:00 -9,6 -15,5 11 6 N 40 -
17.01.2018 22:00:00 -9,4 -16,5 15 8 N 40 -
17.01.2018 21:00:00 -9,6 -15,1 16 9 N 40 -
17.01.2018 20:00:00 -9,6 -15,0 18 10 NNW 40 -
17.01.2018 19:00:00 -9,8 -16,7 18 10 NNW 30 -
17.01.2018 18:00:00 -10,0 -15,3 18 10 NNW 30 -
17.01.2018 17:00:00 -10,0 -16,3 39 21 NNW 20 0
17.01.2018 16:00:00 -10,0 -16,3 42 23 NNW 20 0
17.01.2018 15:00:00 -9,8 -13,5 41 22 NNW 30 0
17.01.2018 14:00:00 -8,8 -13,3 52 28 NW 20 0
17.01.2018 13:00:00 -9,2 -10,8 46 25 WNW 0,5 0
17.01.2018 12:00:00 -8,8 -10,4 52 28 NW 0,2 0
17.01.2018 11:00:00 -7,4 -13,0 52 28 NW 30 18
17.01.2018 10:00:00 -8,0 -10,2 48 26 SSW 30 0
17.01.2018 09:00:00 -7,0 -7,4 26 14 N 20 0
17.01.2018 08:00:00 -6,0 -8,0 31 17 N 20 0
17.01.2018 07:00:00 -4,8 -7,7 24 13 N 40 -
17.01.2018 06:00:00 -4,6 -7,4 41 22 N 40 -
17.01.2018 05:00:00 -4,2 -6,8 37 20 WSW 20 -
17.01.2018 04:00:00 -3,8 -7,7 28 15 SW 30 -
17.01.2018 03:00:00 -3,8 -7,6 22 12 WSW 35 -
17.01.2018 02:00:00 -3,0 -7,3 18 10 WSW 35 -
17.01.2018 01:00:00 -3,0 -7,3 18 10 WSW 35 -
17.01.2018 00:00:00 -3,0 -6,8 34 18 WSW 30 -
16.01.2018 23:00:00 -2,2 -7,3 50 27 W 30 -
16.01.2018 22:00:00 -2,2 -8,5 46 25 WSW 25 -
16.01.2018 21:00:00 -2,8 -8,3 37 20 WSW 25 -
16.01.2018 20:00:00 -3,0 -7,7 34 18 SW 25 -
16.01.2018 19:00:00 -3,2 -6,5 34 18 SW 25 -
16.01.2018 18:00:00 -3,4 -6,7 26 14 WSW 30 0
16.01.2018 17:00:00 -3,0 -6,3 28 15 WSW 30 36
16.01.2018 16:00:00 -3,0 -6,1 29 16 SW 30 60
16.01.2018 15:00:00 -3,8 -6,0 28 15 WSW 35 6
16.01.2018 14:00:00 -4,8 -6,5 22 12 S 0,1 0
16.01.2018 13:00:00 -4,9 -6,6 28 15 SSW - 0
16.01.2018 12:00:00 -5,4 -6,8 29 16 SSW - 0
16.01.2018 11:00:00 -5,8 -7,2 34 18 SSW - 0
16.01.2018 10:00:00 -5,8 -7,2 34 18 S - 0
16.01.2018 09:00:00 -6,0 -7,7 34 18 S - 0
16.01.2018 08:00:00 -5,8 -7,2 28 15 SSW - 0
16.01.2018 07:00:00 -5,2 -6,6 24 13 SSW 0,1 -
16.01.2018 06:00:00 -5,4 -6,8 21 11 SSW 0,1 -
16.01.2018 05:00:00 -5,8 -6,9 9 5 SSW 0,1 -
16.01.2018 04:00:00 -6,0 -7,1 9 5 SSW 0,1 -
16.01.2018 03:00:00 -6,2 -7,3 9 5 SSW 0,1 -
16.01.2018 02:00:00 -6,2 -7,3 15 8 SSW 0,1 -
16.01.2018 01:00:00 -6,8 -7,9 13 7 SSW 0,1 -
16.01.2018 00:00:00 -6,8 -7,9 9 5 SW 0,1 -
15.01.2018 23:00:00 -6,8 -8,0 9 5 SW 0,1 -
15.01.2018 22:00:00 -7,0 -8,4 15 8 SW 0,1 -
15.01.2018 21:00:00 -7,6 -9,1 11 6 SW 0,1 -
15.01.2018 20:00:00 -7,8 -8,7 11 6 SW 0,1 -
15.01.2018 19:00:00 -7,8 -8,7 9 5 SW 0,1 -
15.01.2018 18:00:00 -7,8 -9,4 9 5 SW 0,1 0
15.01.2018 17:00:00 -7,6 -10,4 5 3 SW 0,4 36
15.01.2018 16:00:00 -7,0 -11,5 5 3 N 50 60
15.01.2018 15:00:00 -7,0 -10,7 0 0 N 60 60
15.01.2018 14:00:00 -6,8 -12,3 0 0 N 60 60
15.01.2018 13:00:00 -6,6 -12,1 0 0 N 50 60
15.01.2018 12:00:00 -6,8 -12,3 5 3 NNE 70 60
15.01.2018 11:00:00 -7,0 -11,5 0 0 N 50 60
15.01.2018 10:00:00 -7,0 -10,7 0 0 N 50 60
15.01.2018 09:00:00 -7,8 -10,8 0 0 N 10 18
15.01.2018 08:00:00 -7,8 -10,8 0 0 N 0,3 0
15.01.2018 07:00:00 -7,8 -9,6 0 0 N 0,5 -
15.01.2018 06:00:00 -7,6 -9,4 0 0 N 0,4 -
15.01.2018 05:00:00 -7,6 -9,4 0 0 N 0,4 -
15.01.2018 04:00:00 -7,6 -9,4 0 0 N 0,4 -

tt = temperature
td = dewpoint
ff = wind speed
dd = wind direction
vv = visibility
sd = sunshine duration

Next stations